sensor_id;sensor_type;location;lat;lon;timestamp;P1;durP1;ratioP1;P2;durP2;ratioP2
23416;SDS011;11881;42.432;25.632;2022-09-21T00:00:46;0.70;;;0.70;;
23416;SDS011;11881;42.432;25.632;2022-09-21T00:03:37;0.70;;;0.70;;
23416;SDS011;11881;42.432;25.632;2022-09-21T00:06:28;0.63;;;0.60;;
23416;SDS011;11881;42.432;25.632;2022-09-21T00:09:20;0.87;;;0.67;;
23416;SDS011;11881;42.432;25.632;2022-09-21T00:12:10;0.97;;;0.83;;
23416;SDS011;11881;42.432;25.632;2022-09-21T00:15:00;0.60;;;0.60;;
23416;SDS011;11881;42.432;25.632;2022-09-21T00:17:51;3.10;;;0.80;;
23416;SDS011;11881;42.432;25.632;2022-09-21T00:20:42;0.60;;;0.60;;
23416;SDS011;11881;42.432;25.632;2022-09-21T00:23:33;0.70;;;0.70;;
23416;SDS011;11881;42.432;25.632;2022-09-21T00:26:07;0.60;;;0.60;;
23416;SDS011;11881;42.432;25.632;2022-09-21T00:28:34;1.07;;;0.80;;
23416;SDS011;11881;42.432;25.632;2022-09-21T00:31:01;1.00;;;0.70;;
23416;SDS011;11881;42.432;25.632;2022-09-21T00:33:31;0.93;;;0.70;;
23416;SDS011;11881;42.432;25.632;2022-09-21T00:36:07;2.47;;;0.90;;
23416;SDS011;11881;42.432;25.632;2022-09-21T00:38:34;7.70;;;0.80;;
23416;SDS011;11881;42.432;25.632;2022-09-21T00:41:01;6.63;;;1.00;;
23416;SDS011;11881;42.432;25.632;2022-09-21T00:43:27;2.63;;;0.87;;
23416;SDS011;11881;42.432;25.632;2022-09-21T00:48:50;1.50;;;0.63;;
23416;SDS011;11881;42.432;25.632;2022-09-21T00:51:15;0.73;;;0.73;;
23416;SDS011;11881;42.432;25.632;2022-09-21T00:53:41;2.10;;;0.90;;
23416;SDS011;11881;42.432;25.632;2022-09-21T00:56:07;1.33;;;0.80;;
23416;SDS011;11881;42.432;25.632;2022-09-21T00:58:39;4.50;;;0.80;;
23416;SDS011;11881;42.432;25.632;2022-09-21T01:01:09;0.60;;;0.60;;
23416;SDS011;11881;42.432;25.632;2022-09-21T01:10:09;1.10;;;0.73;;
23416;SDS011;11881;42.432;25.632;2022-09-21T01:30:18;0.70;;;0.70;;
23416;SDS011;11881;42.432;25.632;2022-09-21T01:36:08;0.83;;;0.70;;
23416;SDS011;11881;42.432;25.632;2022-09-21T01:39:07;0.60;;;0.60;;
23416;SDS011;11881;42.432;25.632;2022-09-21T01:42:00;1.13;;;0.60;;
23416;SDS011;11881;42.432;25.632;2022-09-21T01:44:55;1.00;;;0.83;;
23416;SDS011;11881;42.432;25.632;2022-09-21T01:47:50;1.20;;;0.70;;
23416;SDS011;11881;42.432;25.632;2022-09-21T01:50:44;0.60;;;0.60;;
23416;SDS011;11881;42.432;25.632;2022-09-21T01:56:45;1.00;;;0.70;;
23416;SDS011;11881;42.432;25.632;2022-09-21T01:59:43;0.70;;;0.70;;
23416;SDS011;11881;42.432;25.632;2022-09-21T02:02:42;0.67;;;0.60;;
23416;SDS011;11881;42.432;25.632;2022-09-21T02:05:40;0.83;;;0.70;;
23416;SDS011;11881;42.432;25.632;2022-09-21T02:08:32;0.90;;;0.70;;
23416;SDS011;11881;42.432;25.632;2022-09-21T02:24:54;2.50;;;0.80;;
23416;SDS011;11881;42.432;25.632;2022-09-21T02:33:01;2.00;;;0.80;;
23416;SDS011;11881;42.432;25.632;2022-09-21T02:38:32;0.70;;;0.70;;
23416;SDS011;11881;42.432;25.632;2022-09-21T02:41:18;1.37;;;0.80;;
23416;SDS011;11881;42.432;25.632;2022-09-21T02:46:29;3.73;;;1.03;;
23416;SDS011;11881;42.432;25.632;2022-09-21T02:49:02;5.37;;;0.90;;
23416;SDS011;11881;42.432;25.632;2022-09-21T02:51:38;3.67;;;0.90;;
23416;SDS011;11881;42.432;25.632;2022-09-21T02:54:11;7.90;;;1.27;;
23416;SDS011;11881;42.432;25.632;2022-09-21T02:56:40;5.97;;;1.30;;
23416;SDS011;11881;42.432;25.632;2022-09-21T02:59:07;5.30;;;1.10;;
23416;SDS011;11881;42.432;25.632;2022-09-21T03:01:32;4.33;;;0.90;;
23416;SDS011;11881;42.432;25.632;2022-09-21T03:03:59;7.33;;;1.20;;
23416;SDS011;11881;42.432;25.632;2022-09-21T03:06:24;5.90;;;1.40;;
23416;SDS011;11881;42.432;25.632;2022-09-21T03:08:50;4.20;;;1.30;;
23416;SDS011;11881;42.432;25.632;2022-09-21T03:11:16;3.67;;;1.00;;
23416;SDS011;11881;42.432;25.632;2022-09-21T03:13:42;3.47;;;1.20;;
23416;SDS011;11881;42.432;25.632;2022-09-21T03:16:08;8.37;;;1.10;;
23416;SDS011;11881;42.432;25.632;2022-09-21T03:18:35;8.80;;;1.20;;
23416;SDS011;11881;42.432;25.632;2022-09-21T03:21:00;8.37;;;1.20;;
23416;SDS011;11881;42.432;25.632;2022-09-21T03:34:27;3.43;;;1.50;;
23416;SDS011;11881;42.432;25.632;2022-09-21T03:36:52;3.57;;;1.40;;
23416;SDS011;11881;42.432;25.632;2022-09-21T03:39:18;7.87;;;1.13;;
23416;SDS011;11881;42.432;25.632;2022-09-21T03:41:43;8.27;;;1.23;;
23416;SDS011;11881;42.432;25.632;2022-09-21T03:44:09;4.00;;;1.33;;
23416;SDS011;11881;42.432;25.632;2022-09-21T03:46:34;8.03;;;1.27;;
23416;SDS011;11881;42.432;25.632;2022-09-21T03:49:00;7.53;;;1.37;;
23416;SDS011;11881;42.432;25.632;2022-09-21T03:51:27;4.80;;;1.20;;
23416;SDS011;11881;42.432;25.632;2022-09-21T03:53:55;9.47;;;1.50;;
23416;SDS011;11881;42.432;25.632;2022-09-21T03:56:21;2.97;;;1.10;;
23416;SDS011;11881;42.432;25.632;2022-09-21T03:58:46;9.47;;;1.50;;
23416;SDS011;11881;42.432;25.632;2022-09-21T04:01:11;4.83;;;1.27;;
23416;SDS011;11881;42.432;25.632;2022-09-21T04:03:37;7.20;;;1.40;;
23416;SDS011;11881;42.432;25.632;2022-09-21T04:06:07;4.33;;;2.03;;
23416;SDS011;11881;42.432;25.632;2022-09-21T04:08:36;8.30;;;3.63;;
23416;SDS011;11881;42.432;25.632;2022-09-21T04:11:07;6.33;;;1.13;;
23416;SDS011;11881;42.432;25.632;2022-09-21T04:13:36;3.13;;;0.80;;
23416;SDS011;11881;42.432;25.632;2022-09-21T04:16:02;3.97;;;1.10;;
23416;SDS011;11881;42.432;25.632;2022-09-21T04:18:28;2.97;;;1.00;;
23416;SDS011;11881;42.432;25.632;2022-09-21T04:20:53;6.20;;;1.10;;
23416;SDS011;11881;42.432;25.632;2022-09-21T04:23:18;2.93;;;1.30;;
23416;SDS011;11881;42.432;25.632;2022-09-21T04:25:45;4.00;;;1.37;;
23416;SDS011;11881;42.432;25.632;2022-09-21T04:28:11;6.43;;;1.40;;
23416;SDS011;11881;42.432;25.632;2022-09-21T04:30:37;12.87;;;2.20;;
23416;SDS011;11881;42.432;25.632;2022-09-21T04:33:02;9.30;;;1.90;;
23416;SDS011;11881;42.432;25.632;2022-09-21T04:35:27;14.37;;;2.10;;
23416;SDS011;11881;42.432;25.632;2022-09-21T04:37:53;9.33;;;2.40;;
23416;SDS011;11881;42.432;25.632;2022-09-21T04:40:20;9.30;;;2.03;;
23416;SDS011;11881;42.432;25.632;2022-09-21T04:42:49;8.57;;;1.97;;
23416;SDS011;11881;42.432;25.632;2022-09-21T04:45:16;12.90;;;1.80;;
23416;SDS011;11881;42.432;25.632;2022-09-21T04:47:42;23.10;;;2.60;;
23416;SDS011;11881;42.432;25.632;2022-09-21T04:50:07;14.17;;;1.87;;
23416;SDS011;11881;42.432;25.632;2022-09-21T04:52:33;11.73;;;1.83;;
23416;SDS011;11881;42.432;25.632;2022-09-21T04:54:59;4.70;;;1.23;;
23416;SDS011;11881;42.432;25.632;2022-09-21T04:57:24;13.30;;;1.33;;
23416;SDS011;11881;42.432;25.632;2022-09-21T04:59:50;13.50;;;1.30;;
23416;SDS011;11881;42.432;25.632;2022-09-21T05:02:15;4.47;;;1.70;;
23416;SDS011;11881;42.432;25.632;2022-09-21T05:04:40;14.63;;;1.70;;
23416;SDS011;11881;42.432;25.632;2022-09-21T05:07:06;11.20;;;1.70;;
23416;SDS011;11881;42.432;25.632;2022-09-21T05:09:31;19.83;;;2.10;;
23416;SDS011;11881;42.432;25.632;2022-09-21T05:12:15;17.27;;;2.03;;
23416;SDS011;11881;42.432;25.632;2022-09-21T05:14:40;20.57;;;3.03;;
23416;SDS011;11881;42.432;25.632;2022-09-21T05:17:08;18.87;;;2.40;;
23416;SDS011;11881;42.432;25.632;2022-09-21T05:19:58;11.40;;;1.60;;
23416;SDS011;11881;42.432;25.632;2022-09-21T05:22:49;19.17;;;1.93;;
23416;SDS011;11881;42.432;25.632;2022-09-21T05:25:39;5.33;;;1.60;;
23416;SDS011;11881;42.432;25.632;2022-09-21T05:28:29;8.03;;;1.30;;
23416;SDS011;11881;42.432;25.632;2022-09-21T05:34:38;9.80;;;1.70;;
23416;SDS011;11881;42.432;25.632;2022-09-21T06:03:27;8.43;;;1.30;;
23416;SDS011;11881;42.432;25.632;2022-09-21T06:06:19;5.60;;;1.00;;
23416;SDS011;11881;42.432;25.632;2022-09-21T06:09:10;7.20;;;1.30;;
23416;SDS011;11881;42.432;25.632;2022-09-21T06:12:00;5.93;;;0.80;;
23416;SDS011;11881;42.432;25.632;2022-09-21T06:14:51;6.20;;;0.90;;
23416;SDS011;11881;42.432;25.632;2022-09-21T06:17:41;4.20;;;1.10;;
23416;SDS011;11881;42.432;25.632;2022-09-21T06:20:32;5.37;;;0.70;;
23416;SDS011;11881;42.432;25.632;2022-09-21T06:23:23;9.27;;;0.80;;
23416;SDS011;11881;42.432;25.632;2022-09-21T06:26:13;6.93;;;1.20;;
23416;SDS011;11881;42.432;25.632;2022-09-21T06:29:03;5.63;;;0.70;;
23416;SDS011;11881;42.432;25.632;2022-09-21T06:31:53;2.17;;;0.80;;
23416;SDS011;11881;42.432;25.632;2022-09-21T06:34:44;1.10;;;0.60;;
23416;SDS011;11881;42.432;25.632;2022-09-21T06:37:35;8.60;;;1.40;;
23416;SDS011;11881;42.432;25.632;2022-09-21T06:40:26;7.10;;;0.50;;
23416;SDS011;11881;42.432;25.632;2022-09-21T06:43:18;3.93;;;0.70;;
23416;SDS011;11881;42.432;25.632;2022-09-21T06:46:09;0.50;;;0.40;;
23416;SDS011;11881;42.432;25.632;2022-09-21T06:49:00;6.17;;;0.60;;
23416;SDS011;11881;42.432;25.632;2022-09-21T06:51:51;4.13;;;0.50;;
23416;SDS011;11881;42.432;25.632;2022-09-21T06:54:42;1.03;;;0.60;;
23416;SDS011;11881;42.432;25.632;2022-09-21T06:57:08;1.77;;;0.40;;
23416;SDS011;11881;42.432;25.632;2022-09-21T06:59:33;1.80;;;0.50;;
23416;SDS011;11881;42.432;25.632;2022-09-21T07:01:58;4.67;;;0.50;;
23416;SDS011;11881;42.432;25.632;2022-09-21T07:07:46;0.70;;;0.40;;
23416;SDS011;11881;42.432;25.632;2022-09-21T07:10:11;4.50;;;0.40;;
23416;SDS011;11881;42.432;25.632;2022-09-21T07:12:36;1.80;;;0.40;;
23416;SDS011;11881;42.432;25.632;2022-09-21T07:15:03;1.23;;;0.40;;
23416;SDS011;11881;42.432;25.632;2022-09-21T07:17:30;15.03;;;0.70;;
23416;SDS011;11881;42.432;25.632;2022-09-21T07:20:00;1.20;;;0.40;;
23416;SDS011;11881;42.432;25.632;2022-09-21T07:22:30;1.37;;;0.40;;
23416;SDS011;11881;42.432;25.632;2022-09-21T07:24:57;1.57;;;0.40;;
23416;SDS011;11881;42.432;25.632;2022-09-21T07:27:23;4.73;;;0.40;;
23416;SDS011;11881;42.432;25.632;2022-09-21T07:29:50;3.70;;;0.63;;
23416;SDS011;11881;42.432;25.632;2022-09-21T07:32:16;2.63;;;0.40;;
23416;SDS011;11881;42.432;25.632;2022-09-21T07:34:41;4.90;;;0.30;;
23416;SDS011;11881;42.432;25.632;2022-09-21T07:37:07;2.73;;;0.40;;
23416;SDS011;11881;42.432;25.632;2022-09-21T07:39:32;2.80;;;0.40;;
23416;SDS011;11881;42.432;25.632;2022-09-21T07:41:59;0.87;;;0.40;;
23416;SDS011;11881;42.432;25.632;2022-09-21T07:44:25;3.17;;;0.50;;
23416;SDS011;11881;42.432;25.632;2022-09-21T07:46:51;4.10;;;0.60;;
23416;SDS011;11881;42.432;25.632;2022-09-21T07:49:16;2.20;;;0.40;;
23416;SDS011;11881;42.432;25.632;2022-09-21T07:51:42;1.30;;;0.50;;
23416;SDS011;11881;42.432;25.632;2022-09-21T07:54:08;1.13;;;0.40;;
23416;SDS011;11881;42.432;25.632;2022-09-21T08:14:09;2.80;;;0.40;;
23416;SDS011;11881;42.432;25.632;2022-09-21T08:16:36;1.70;;;0.50;;
23416;SDS011;11881;42.432;25.632;2022-09-21T08:19:03;7.03;;;0.33;;
23416;SDS011;11881;42.432;25.632;2022-09-21T08:21:29;3.43;;;0.50;;
23416;SDS011;11881;42.432;25.632;2022-09-21T08:23:54;0.50;;;0.40;;
23416;SDS011;11881;42.432;25.632;2022-09-21T08:26:20;1.77;;;0.40;;
23416;SDS011;11881;42.432;25.632;2022-09-21T08:28:48;1.87;;;0.40;;
23416;SDS011;11881;42.432;25.632;2022-09-21T08:31:19;0.30;;;0.30;;
23416;SDS011;11881;42.432;25.632;2022-09-21T08:33:45;0.93;;;0.40;;
23416;SDS011;11881;42.432;25.632;2022-09-21T08:36:12;0.30;;;0.30;;
23416;SDS011;11881;42.432;25.632;2022-09-21T08:38:38;1.17;;;0.30;;
23416;SDS011;11881;42.432;25.632;2022-09-21T08:46:39;0.40;;;0.30;;
23416;SDS011;11881;42.432;25.632;2022-09-21T08:49:12;0.67;;;0.40;;
23416;SDS011;11881;42.432;25.632;2022-09-21T08:51:51;1.23;;;0.30;;
23416;SDS011;11881;42.432;25.632;2022-09-21T08:54:26;0.87;;;0.40;;
23416;SDS011;11881;42.432;25.632;2022-09-21T08:56:58;0.47;;;0.30;;
23416;SDS011;11881;42.432;25.632;2022-09-21T08:59:24;2.20;;;0.40;;
23416;SDS011;11881;42.432;25.632;2022-09-21T09:01:54;2.60;;;0.47;;
23416;SDS011;11881;42.432;25.632;2022-09-21T09:09:54;7.73;;;0.60;;
23416;SDS011;11881;42.432;25.632;2022-09-21T09:13:05;4.60;;;0.40;;
23416;SDS011;11881;42.432;25.632;2022-09-21T09:18:46;1.33;;;0.40;;
23416;SDS011;11881;42.432;25.632;2022-09-21T09:23:51;2.50;;;0.50;;
23416;SDS011;11881;42.432;25.632;2022-09-21T09:26:29;0.80;;;0.63;;
23416;SDS011;11881;42.432;25.632;2022-09-21T09:29:06;4.40;;;0.40;;
23416;SDS011;11881;42.432;25.632;2022-09-21T09:31:35;0.30;;;0.30;;
23416;SDS011;11881;42.432;25.632;2022-09-21T09:36:59;2.30;;;0.40;;
23416;SDS011;11881;42.432;25.632;2022-09-21T09:39:34;10.10;;;1.33;;
23416;SDS011;11881;42.432;25.632;2022-09-21T09:42:12;3.73;;;0.73;;
23416;SDS011;11881;42.432;25.632;2022-09-21T09:50:34;1.53;;;0.57;;
23416;SDS011;11881;42.432;25.632;2022-09-21T09:53:08;1.37;;;0.50;;
23416;SDS011;11881;42.432;25.632;2022-09-21T09:55:44;2.40;;;0.60;;
23416;SDS011;11881;42.432;25.632;2022-09-21T09:58:17;4.90;;;0.60;;
23416;SDS011;11881;42.432;25.632;2022-09-21T10:00:42;1.03;;;0.60;;
23416;SDS011;11881;42.432;25.632;2022-09-21T10:03:14;7.27;;;0.60;;
23416;SDS011;11881;42.432;25.632;2022-09-21T10:05:45;3.23;;;0.70;;
23416;SDS011;11881;42.432;25.632;2022-09-21T10:08:28;1.60;;;0.70;;
23416;SDS011;11881;42.432;25.632;2022-09-21T10:11:10;4.43;;;1.53;;
23416;SDS011;11881;42.432;25.632;2022-09-21T10:13:41;2.40;;;0.53;;
23416;SDS011;11881;42.432;25.632;2022-09-21T10:16:12;5.17;;;1.00;;
23416;SDS011;11881;42.432;25.632;2022-09-21T10:18:39;5.40;;;1.33;;
23416;SDS011;11881;42.432;25.632;2022-09-21T10:23:48;3.50;;;0.60;;
23416;SDS011;11881;42.432;25.632;2022-09-21T10:26:16;2.43;;;0.40;;
23416;SDS011;11881;42.432;25.632;2022-09-21T10:28:59;1.37;;;0.50;;
23416;SDS011;11881;42.432;25.632;2022-09-21T10:31:27;3.27;;;0.60;;
23416;SDS011;11881;42.432;25.632;2022-09-21T11:17:37;1.03;;;0.60;;
23416;SDS011;11881;42.432;25.632;2022-09-21T11:22:42;2.30;;;1.30;;
23416;SDS011;11881;42.432;25.632;2022-09-21T11:27:46;1.97;;;1.53;;
23416;SDS011;11881;42.432;25.632;2022-09-21T11:44:17;1.57;;;0.80;;
23416;SDS011;11881;42.432;25.632;2022-09-21T12:00:46;4.60;;;0.90;;
23416;SDS011;11881;42.432;25.632;2022-09-21T12:03:26;7.37;;;1.10;;
23416;SDS011;11881;42.432;25.632;2022-09-21T12:17:33;1.83;;;0.73;;
23416;SDS011;11881;42.432;25.632;2022-09-21T12:22:39;2.57;;;0.57;;
23416;SDS011;11881;42.432;25.632;2022-09-21T12:30:38;0.97;;;0.80;;
23416;SDS011;11881;42.432;25.632;2022-09-21T12:33:25;4.70;;;0.83;;
23416;SDS011;11881;42.432;25.632;2022-09-21T12:36:06;3.30;;;0.83;;
23416;SDS011;11881;42.432;25.632;2022-09-21T12:38:52;1.47;;;0.90;;
23416;SDS011;11881;42.432;25.632;2022-09-21T12:41:34;1.40;;;0.80;;
23416;SDS011;11881;42.432;25.632;2022-09-21T12:53:30;4.83;;;0.60;;
23416;SDS011;11881;42.432;25.632;2022-09-21T12:58:41;0.60;;;0.60;;
23416;SDS011;11881;42.432;25.632;2022-09-21T13:04:23;1.50;;;0.50;;
23416;SDS011;11881;42.432;25.632;2022-09-21T13:07:44;2.53;;;0.50;;
23416;SDS011;11881;42.432;25.632;2022-09-21T13:09:57;0.40;;;0.40;;
23416;SDS011;11881;42.432;25.632;2022-09-21T13:12:38;2.43;;;0.57;;
23416;SDS011;11881;42.432;25.632;2022-09-21T13:15:26;0.80;;;0.50;;
23416;SDS011;11881;42.432;25.632;2022-09-21T13:18:04;1.33;;;0.60;;
23416;SDS011;11881;42.432;25.632;2022-09-21T13:20:40;0.70;;;0.60;;
23416;SDS011;11881;42.432;25.632;2022-09-21T13:23:13;3.80;;;0.73;;
23416;SDS011;11881;42.432;25.632;2022-09-21T13:25:46;1.07;;;0.50;;
23416;SDS011;11881;42.432;25.632;2022-09-21T13:33:28;0.90;;;0.60;;
23416;SDS011;11881;42.432;25.632;2022-09-21T13:38:30;1.27;;;0.60;;
23416;SDS011;11881;42.432;25.632;2022-09-21T13:43:23;2.60;;;0.83;;
23416;SDS011;11881;42.432;25.632;2022-09-21T13:46:10;2.00;;;0.70;;
23416;SDS011;11881;42.432;25.632;2022-09-21T14:02:08;6.33;;;1.03;;
23416;SDS011;11881;42.432;25.632;2022-09-21T14:04:48;4.20;;;0.80;;
23416;SDS011;11881;42.432;25.632;2022-09-21T14:07:15;1.77;;;1.00;;
23416;SDS011;11881;42.432;25.632;2022-09-21T14:09:49;2.77;;;0.80;;
23416;SDS011;11881;42.432;25.632;2022-09-21T14:12:20;3.60;;;0.90;;
23416;SDS011;11881;42.432;25.632;2022-09-21T14:17:41;1.60;;;0.43;;
23416;SDS011;11881;42.432;25.632;2022-09-21T14:20:30;1.07;;;0.67;;
23416;SDS011;11881;42.432;25.632;2022-09-21T14:25:53;2.23;;;0.40;;
23416;SDS011;11881;42.432;25.632;2022-09-21T14:28:34;1.70;;;0.40;;
23416;SDS011;11881;42.432;25.632;2022-09-21T14:33:53;3.03;;;0.60;;
23416;SDS011;11881;42.432;25.632;2022-09-21T14:36:23;2.80;;;0.53;;
23416;SDS011;11881;42.432;25.632;2022-09-21T14:38:56;2.33;;;0.43;;
23416;SDS011;11881;42.432;25.632;2022-09-21T14:41:29;3.17;;;0.60;;
23416;SDS011;11881;42.432;25.632;2022-09-21T14:44:03;1.50;;;0.60;;
23416;SDS011;11881;42.432;25.632;2022-09-21T15:10:31;0.50;;;0.50;;
23416;SDS011;11881;42.432;25.632;2022-09-21T15:13:39;1.03;;;0.50;;
23416;SDS011;11881;42.432;25.632;2022-09-21T15:18:44;1.43;;;0.40;;
23416;SDS011;11881;42.432;25.632;2022-09-21T15:21:45;1.93;;;0.50;;
23416;SDS011;11881;42.432;25.632;2022-09-21T15:24:31;5.63;;;0.60;;
23416;SDS011;11881;42.432;25.632;2022-09-21T15:27:10;4.43;;;0.50;;
23416;SDS011;11881;42.432;25.632;2022-09-21T15:29:41;2.97;;;0.60;;
23416;SDS011;11881;42.432;25.632;2022-09-21T15:32:16;3.60;;;0.50;;
23416;SDS011;11881;42.432;25.632;2022-09-21T15:34:55;3.67;;;0.67;;
23416;SDS011;11881;42.432;25.632;2022-09-21T15:37:23;3.67;;;0.70;;
23416;SDS011;11881;42.432;25.632;2022-09-21T15:39:57;12.97;;;4.53;;
23416;SDS011;11881;42.432;25.632;2022-09-21T15:42:24;7.60;;;1.00;;
23416;SDS011;11881;42.432;25.632;2022-09-21T15:44:53;2.53;;;1.10;;
23416;SDS011;11881;42.432;25.632;2022-09-21T16:10:48;4.93;;;1.50;;
23416;SDS011;11881;42.432;25.632;2022-09-21T16:13:18;5.47;;;1.77;;
23416;SDS011;11881;42.432;25.632;2022-09-21T16:16:14;6.03;;;1.47;;
23416;SDS011;11881;42.432;25.632;2022-09-21T16:18:47;1.73;;;1.00;;
23416;SDS011;11881;42.432;25.632;2022-09-21T16:21:38;4.43;;;1.10;;
23416;SDS011;11881;42.432;25.632;2022-09-21T16:24:28;2.90;;;0.90;;
23416;SDS011;11881;42.432;25.632;2022-09-21T16:27:21;1.40;;;0.60;;
23416;SDS011;11881;42.432;25.632;2022-09-21T16:30:36;4.43;;;0.80;;
23416;SDS011;11881;42.432;25.632;2022-09-21T16:33:39;2.30;;;0.60;;
23416;SDS011;11881;42.432;25.632;2022-09-21T16:36:36;1.43;;;0.50;;
23416;SDS011;11881;42.432;25.632;2022-09-21T16:39:28;1.17;;;0.47;;
23416;SDS011;11881;42.432;25.632;2022-09-21T16:42:18;1.90;;;0.57;;
23416;SDS011;11881;42.432;25.632;2022-09-21T16:45:15;0.73;;;0.50;;
23416;SDS011;11881;42.432;25.632;2022-09-21T16:48:14;0.80;;;0.60;;
23416;SDS011;11881;42.432;25.632;2022-09-21T16:51:08;1.37;;;0.60;;
23416;SDS011;11881;42.432;25.632;2022-09-21T16:54:01;2.03;;;0.60;;
23416;SDS011;11881;42.432;25.632;2022-09-21T16:56:52;1.63;;;0.50;;
23416;SDS011;11881;42.432;25.632;2022-09-21T16:59:19;2.60;;;0.60;;
23416;SDS011;11881;42.432;25.632;2022-09-21T17:01:51;2.63;;;0.60;;
23416;SDS011;11881;42.432;25.632;2022-09-21T17:04:19;0.87;;;0.50;;
23416;SDS011;11881;42.432;25.632;2022-09-21T17:06:47;2.87;;;0.50;;
23416;SDS011;11881;42.432;25.632;2022-09-21T17:09:23;2.37;;;0.63;;
23416;SDS011;11881;42.432;25.632;2022-09-21T17:11:50;2.30;;;0.50;;
23416;SDS011;11881;42.432;25.632;2022-09-21T17:14:17;0.50;;;0.50;;
23416;SDS011;11881;42.432;25.632;2022-09-21T17:16:48;0.60;;;0.60;;
23416;SDS011;11881;42.432;25.632;2022-09-21T17:19:16;1.17;;;0.67;;
23416;SDS011;11881;42.432;25.632;2022-09-21T17:21:43;2.97;;;0.80;;
23416;SDS011;11881;42.432;25.632;2022-09-21T17:24:09;2.23;;;0.80;;
23416;SDS011;11881;42.432;25.632;2022-09-21T17:26:35;5.93;;;1.37;;
23416;SDS011;11881;42.432;25.632;2022-09-21T17:29:01;3.73;;;1.17;;
23416;SDS011;11881;42.432;25.632;2022-09-21T17:31:29;2.30;;;0.80;;
23416;SDS011;11881;42.432;25.632;2022-09-21T17:33:56;2.77;;;0.73;;
23416;SDS011;11881;42.432;25.632;2022-09-21T17:36:23;2.10;;;0.70;;
23416;SDS011;11881;42.432;25.632;2022-09-21T17:38:49;1.43;;;0.70;;
23416;SDS011;11881;42.432;25.632;2022-09-21T17:41:18;0.80;;;0.57;;
23416;SDS011;11881;42.432;25.632;2022-09-21T17:43:52;3.10;;;0.90;;
23416;SDS011;11881;42.432;25.632;2022-09-21T17:49:00;0.90;;;0.90;;
23416;SDS011;11881;42.432;25.632;2022-09-21T17:51:26;1.13;;;0.60;;
23416;SDS011;11881;42.432;25.632;2022-09-21T17:54:10;0.93;;;0.80;;
23416;SDS011;11881;42.432;25.632;2022-09-21T17:59:04;2.93;;;0.87;;
23416;SDS011;11881;42.432;25.632;2022-09-21T18:08:13;0.53;;;0.53;;
23416;SDS011;11881;42.432;25.632;2022-09-21T18:10:38;0.70;;;0.60;;
23416;SDS011;11881;42.432;25.632;2022-09-21T18:18:38;0.67;;;0.60;;
23416;SDS011;11881;42.432;25.632;2022-09-21T18:21:17;1.23;;;0.60;;
23416;SDS011;11881;42.432;25.632;2022-09-21T18:26:45;1.63;;;0.80;;
23416;SDS011;11881;42.432;25.632;2022-09-21T18:29:34;0.60;;;0.60;;
23416;SDS011;11881;42.432;25.632;2022-09-21T18:41:08;2.80;;;1.00;;
23416;SDS011;11881;42.432;25.632;2022-09-21T18:43:35;0.70;;;0.70;;
23416;SDS011;11881;42.432;25.632;2022-09-21T18:46:27;1.43;;;0.70;;
23416;SDS011;11881;42.432;25.632;2022-09-21T18:55:16;0.70;;;0.70;;
23416;SDS011;11881;42.432;25.632;2022-09-21T18:58:18;2.40;;;0.70;;
23416;SDS011;11881;42.432;25.632;2022-09-21T19:01:12;0.80;;;0.70;;
23416;SDS011;11881;42.432;25.632;2022-09-21T19:04:03;1.40;;;0.70;;
23416;SDS011;11881;42.432;25.632;2022-09-21T19:23:43;0.70;;;0.70;;
23416;SDS011;11881;42.432;25.632;2022-09-21T19:31:43;0.80;;;0.60;;
23416;SDS011;11881;42.432;25.632;2022-09-21T19:34:14;0.80;;;0.80;;
23416;SDS011;11881;42.432;25.632;2022-09-21T19:36:41;0.77;;;0.70;;
23416;SDS011;11881;42.432;25.632;2022-09-21T19:39:10;1.00;;;0.77;;
23416;SDS011;11881;42.432;25.632;2022-09-21T19:52:34;0.67;;;0.50;;
23416;SDS011;11881;42.432;25.632;2022-09-21T19:55:00;0.50;;;0.50;;
23416;SDS011;11881;42.432;25.632;2022-09-21T19:57:44;1.10;;;0.50;;
23416;SDS011;11881;42.432;25.632;2022-09-21T20:00:29;1.10;;;0.50;;
23416;SDS011;11881;42.432;25.632;2022-09-21T20:05:22;1.40;;;0.60;;
23416;SDS011;11881;42.432;25.632;2022-09-21T20:08:04;0.40;;;0.40;;
23416;SDS011;11881;42.432;25.632;2022-09-21T20:14:03;0.47;;;0.40;;
23416;SDS011;11881;42.432;25.632;2022-09-21T20:16:48;0.83;;;0.50;;
23416;SDS011;11881;42.432;25.632;2022-09-21T21:02:36;0.83;;;0.80;;
23416;SDS011;11881;42.432;25.632;2022-09-21T21:05:02;0.70;;;0.70;;
23416;SDS011;11881;42.432;25.632;2022-09-21T21:07:28;1.03;;;0.60;;
23416;SDS011;11881;42.432;25.632;2022-09-21T21:09:54;0.50;;;0.50;;
23416;SDS011;11881;42.432;25.632;2022-09-21T21:12:20;0.63;;;0.60;;
23416;SDS011;11881;42.432;25.632;2022-09-21T21:14:45;1.53;;;0.60;;
23416;SDS011;11881;42.432;25.632;2022-09-21T21:17:11;0.67;;;0.53;;
23416;SDS011;11881;42.432;25.632;2022-09-21T21:19:39;0.77;;;0.60;;
23416;SDS011;11881;42.432;25.632;2022-09-21T21:22:07;0.70;;;0.60;;
23416;SDS011;11881;42.432;25.632;2022-09-21T21:24:34;1.03;;;0.70;;
23416;SDS011;11881;42.432;25.632;2022-09-21T21:27:10;0.50;;;0.50;;
23416;SDS011;11881;42.432;25.632;2022-09-21T21:29:41;4.23;;;0.50;;
23416;SDS011;11881;42.432;25.632;2022-09-21T21:32:10;0.50;;;0.50;;
23416;SDS011;11881;42.432;25.632;2022-09-21T21:34:37;0.80;;;0.50;;
23416;SDS011;11881;42.432;25.632;2022-09-21T21:37:03;0.50;;;0.50;;
23416;SDS011;11881;42.432;25.632;2022-09-21T21:39:29;0.97;;;0.47;;
23416;SDS011;11881;42.432;25.632;2022-09-21T21:41:54;1.07;;;0.50;;
23416;SDS011;11881;42.432;25.632;2022-09-21T21:44:20;2.30;;;0.50;;
23416;SDS011;11881;42.432;25.632;2022-09-21T21:46:46;0.50;;;0.50;;
23416;SDS011;11881;42.432;25.632;2022-09-21T21:49:12;0.90;;;0.50;;
23416;SDS011;11881;42.432;25.632;2022-09-21T21:51:38;0.70;;;0.47;;
23416;SDS011;11881;42.432;25.632;2022-09-21T21:54:04;1.17;;;0.70;;
23416;SDS011;11881;42.432;25.632;2022-09-21T21:56:29;3.17;;;0.70;;
23416;SDS011;11881;42.432;25.632;2022-09-21T21:58:55;2.17;;;0.60;;
23416;SDS011;11881;42.432;25.632;2022-09-21T22:38:04;0.97;;;0.47;;
23416;SDS011;11881;42.432;25.632;2022-09-21T22:41:05;0.67;;;0.50;;
23416;SDS011;11881;42.432;25.632;2022-09-21T22:43:58;0.60;;;0.60;;
23416;SDS011;11881;42.432;25.632;2022-09-21T22:46:49;1.70;;;0.60;;
23416;SDS011;11881;42.432;25.632;2022-09-21T22:49:39;0.50;;;0.50;;
23416;SDS011;11881;42.432;25.632;2022-09-21T22:52:30;1.37;;;0.50;;
23416;SDS011;11881;42.432;25.632;2022-09-21T22:55:20;1.23;;;0.50;;
23416;SDS011;11881;42.432;25.632;2022-09-21T22:58:10;1.33;;;0.50;;
23416;SDS011;11881;42.432;25.632;2022-09-21T23:03:59;1.40;;;0.50;;
23416;SDS011;11881;42.432;25.632;2022-09-21T23:06:30;1.40;;;0.60;;
23416;SDS011;11881;42.432;25.632;2022-09-21T23:08:58;1.17;;;0.50;;
23416;SDS011;11881;42.432;25.632;2022-09-21T23:11:27;3.13;;;0.57;;
23416;SDS011;11881;42.432;25.632;2022-09-21T23:13:55;1.03;;;0.50;;
23416;SDS011;11881;42.432;25.632;2022-09-21T23:16:21;0.60;;;0.50;;
23416;SDS011;11881;42.432;25.632;2022-09-21T23:18:48;0.40;;;0.40;;
23416;SDS011;11881;42.432;25.632;2022-09-21T23:21:16;0.53;;;0.53;;
23416;SDS011;11881;42.432;25.632;2022-09-21T23:23:43;0.80;;;0.40;;
23416;SDS011;11881;42.432;25.632;2022-09-21T23:28:37;1.03;;;0.50;;
23416;SDS011;11881;42.432;25.632;2022-09-21T23:31:05;0.60;;;0.53;;
23416;SDS011;11881;42.432;25.632;2022-09-21T23:33:33;0.57;;;0.57;;
23416;SDS011;11881;42.432;25.632;2022-09-21T23:36:00;0.90;;;0.60;;
23416;SDS011;11881;42.432;25.632;2022-09-21T23:57:35;0.77;;;0.60;;
